createdAt,value
2018-12-18T00:00:34.656Z,15.43
2018-12-18T00:03:01.436Z,22.47
2018-12-18T00:05:34.244Z,18.07
2018-12-18T00:08:01.352Z,18.57
2018-12-18T00:10:33.691Z,18.83
2018-12-18T00:13:00.460Z,18.47
2018-12-18T00:15:27.212Z,16.40
2018-12-18T00:17:54.080Z,15.40
2018-12-18T00:20:20.822Z,14.13
2018-12-18T00:22:47.584Z,14.93
2018-12-18T00:25:14.324Z,15.77
2018-12-18T00:27:41.081Z,16.40
2018-12-18T00:30:07.839Z,15.57
2018-12-18T00:32:34.604Z,17.13
2018-12-18T00:35:01.362Z,15.90
2018-12-18T00:37:28.127Z,18.30
2018-12-18T00:39:54.881Z,19.90
2018-12-18T00:42:21.653Z,22.07
2018-12-18T00:44:48.401Z,21.40
2018-12-18T00:47:15.140Z,21.03
2018-12-18T00:49:41.896Z,18.33
2018-12-18T00:52:08.636Z,25.37
2018-12-18T00:54:35.392Z,24.27
2018-12-18T00:57:02.148Z,23.40
2018-12-18T00:59:28.960Z,19.65
2018-12-18T01:02:00.144Z,18.30
2018-12-18T01:04:27.328Z,19.77
2018-12-18T01:06:54.076Z,19.60
2018-12-18T01:09:20.852Z,17.60
2018-12-18T01:11:47.601Z,23.67
2018-12-18T01:14:14.369Z,20.67
2018-12-18T01:16:41.156Z,25.43
2018-12-18T01:19:07.909Z,23.30
2018-12-18T01:21:34.660Z,23.07
2018-12-18T01:24:01.437Z,23.98
2018-12-18T01:26:28.176Z,36.13
2018-12-18T01:28:54.948Z,24.17
2018-12-18T01:31:21.696Z,19.87
2018-12-18T01:33:48.461Z,20.87
2018-12-18T01:36:15.195Z,17.60
2018-12-18T01:38:41.950Z,19.80
2018-12-18T01:41:08.692Z,20.23
2018-12-18T01:43:35.460Z,22.37
2018-12-18T01:46:02.200Z,28.17
2018-12-18T01:48:28.956Z,25.17
2018-12-18T01:50:55.708Z,20.60
2018-12-18T01:53:22.468Z,19.33
2018-12-18T01:55:49.205Z,19.37
2018-12-18T01:58:15.964Z,19.33
2018-12-18T02:00:42.708Z,17.20
2018-12-18T02:03:09.492Z,17.57
2018-12-18T02:05:36.240Z,15.20
2018-12-18T02:08:02.986Z,14.53
2018-12-18T02:10:29.753Z,16.20
2018-12-18T02:12:56.500Z,23.20
2018-12-18T02:15:23.272Z,25.70
2018-12-18T02:17:50.011Z,27.57
2018-12-18T02:20:16.876Z,27.13
2018-12-18T02:22:43.633Z,19.63
2018-12-18T02:25:10.393Z,21.37
2018-12-18T02:27:37.147Z,21.27
2018-12-18T02:30:04.779Z,19.57
2018-12-18T02:32:31.522Z,25.85
2018-12-18T02:34:58.284Z,20.53
2018-12-18T02:37:25.033Z,20.73
2018-12-18T02:39:51.789Z,19.10
2018-12-18T02:42:18.544Z,22.73
2018-12-18T02:44:45.344Z,26.13
2018-12-18T02:47:12.082Z,28.87
2018-12-18T02:49:38.856Z,22.77
2018-12-18T02:52:05.595Z,31.77
2018-12-18T02:54:32.360Z,34.50
2018-12-18T02:56:59.099Z,28.83
2018-12-18T02:59:25.890Z,32.33
2018-12-18T03:01:52.652Z,34.53
2018-12-18T03:04:21.793Z,28.80
2018-12-18T03:06:46.160Z,26.30
2018-12-18T03:09:12.921Z,24.60
2018-12-18T03:11:39.668Z,30.43
2018-12-18T03:14:06.425Z,25.43
2018-12-18T03:16:33.172Z,28.77
2018-12-18T03:18:59.944Z,24.23
2018-12-18T03:21:26.697Z,32.67
2018-12-18T03:23:53.468Z,31.47
2018-12-18T03:26:20.210Z,27.10
2018-12-18T03:28:46.977Z,32.20
2018-12-18T03:31:13.725Z,28.50
2018-12-18T03:33:40.492Z,39.80
2018-12-18T03:36:07.233Z,35.57
2018-12-18T03:38:33.987Z,35.17
2018-12-18T03:41:00.729Z,31.93
2018-12-18T03:43:27.472Z,33.33
2018-12-18T03:45:54.246Z,39.13
2018-12-18T03:48:20.981Z,40.10
2018-12-18T03:50:47.744Z,36.83
2018-12-18T03:53:14.481Z,38.63
2018-12-18T03:55:41.244Z,51.97
2018-12-18T03:58:07.985Z,40.50
2018-12-18T04:00:34.752Z,39.50
2018-12-18T04:03:01.514Z,32.90
2018-12-18T04:05:28.276Z,24.80
2018-12-18T04:07:55.024Z,32.27
2018-12-18T04:10:21.797Z,30.40
2018-12-18T04:12:48.533Z,20.73
2018-12-18T04:15:15.303Z,18.73
2018-12-18T04:17:42.041Z,19.33
2018-12-18T04:20:08.800Z,17.03
2018-12-18T04:22:35.542Z,83.63
2018-12-18T04:25:02.316Z,22.37
2018-12-18T04:27:29.054Z,22.03
2018-12-18T04:29:55.824Z,21.27
2018-12-18T04:32:22.565Z,22.33
2018-12-18T04:34:49.325Z,20.17
2018-12-18T04:37:16.064Z,20.90
2018-12-18T04:39:42.838Z,17.23
2018-12-18T04:42:09.572Z,21.23
2018-12-18T04:44:36.333Z,22.40
2018-12-18T04:47:03.081Z,22.70
2018-12-18T04:49:29.844Z,32.30
2018-12-18T04:51:56.584Z,34.60
2018-12-18T04:54:23.355Z,28.63
2018-12-18T04:56:50.119Z,26.37
2018-12-18T04:59:16.883Z,30.97
2018-12-18T05:01:43.626Z,31.03
2018-12-18T05:04:10.401Z,29.87
2018-12-18T05:06:37.148Z,64.57
2018-12-18T05:09:07.100Z,28.63
2018-12-18T05:11:33.847Z,19.60
2018-12-18T05:14:00.600Z,19.47
2018-12-18T05:16:27.332Z,26.80
2018-12-18T05:18:54.124Z,23.00
2018-12-18T05:21:20.893Z,36.43
2018-12-18T05:23:47.637Z,44.40
2018-12-18T05:26:14.531Z,167.50
2018-12-18T05:28:41.266Z,123.60
2018-12-18T05:31:08.012Z,56.70
2018-12-18T05:33:34.741Z,59.07
2018-12-18T05:36:01.508Z,259.87
2018-12-18T05:38:28.260Z,53.67
2018-12-18T05:40:55.030Z,38.97
2018-12-18T05:43:21.803Z,24.60
2018-12-18T05:45:48.616Z,29.07
2018-12-18T05:48:15.592Z,45.33
2018-12-18T05:50:42.358Z,51.77
2018-12-18T05:53:09.088Z,48.53
2018-12-18T05:55:35.913Z,45.00
2018-12-18T05:58:02.636Z,95.23
2018-12-18T06:00:29.396Z,102.77
2018-12-18T06:02:56.153Z,119.03
2018-12-18T06:05:22.903Z,104.67
2018-12-18T06:07:49.661Z,120.13
2018-12-18T06:10:16.417Z,113.23
2018-12-18T06:12:43.181Z,135.50
2018-12-18T06:15:09.944Z,144.70
2018-12-18T06:17:36.684Z,44.37
2018-12-18T06:20:03.520Z,52.40
2018-12-18T06:22:30.307Z,70.03
2018-12-18T06:24:57.016Z,62.27
2018-12-18T06:27:23.760Z,37.17
2018-12-18T06:29:50.532Z,33.00
2018-12-18T06:32:17.276Z,23.70
2018-12-18T06:34:44.050Z,24.53
2018-12-18T06:37:10.784Z,27.60
2018-12-18T06:39:37.610Z,49.47
2018-12-18T06:42:04.357Z,49.20
2018-12-18T06:44:31.144Z,71.20
2018-12-18T06:46:57.892Z,75.53
2018-12-18T06:49:24.659Z,41.67
2018-12-18T06:51:51.413Z,28.50
2018-12-18T06:54:18.172Z,29.80
2018-12-18T06:56:44.932Z,24.93
2018-12-18T06:59:11.668Z,24.70
2018-12-18T07:01:38.440Z,25.77
2018-12-18T07:04:05.181Z,25.17
2018-12-18T07:06:32.044Z,24.97
2018-12-18T07:08:58.778Z,25.30
2018-12-18T07:11:25.525Z,21.37
2018-12-18T07:13:52.277Z,20.60
2018-12-18T07:16:19.032Z,33.03
2018-12-18T07:18:45.772Z,24.07
2018-12-18T07:21:12.564Z,22.63
2018-12-18T07:23:39.320Z,22.10
2018-12-18T07:26:06.092Z,19.70
2018-12-18T07:28:32.836Z,22.90
2018-12-18T07:30:59.610Z,30.17
2018-12-18T07:33:26.360Z,35.10
2018-12-18T07:35:53.139Z,29.60
2018-12-18T07:38:19.872Z,31.87
2018-12-18T07:40:46.637Z,28.20
2018-12-18T07:43:13.392Z,65.37
2018-12-18T07:45:40.154Z,74.03
2018-12-18T07:48:06.967Z,36.93
2018-12-18T07:50:33.664Z,59.17
2018-12-18T07:53:00.444Z,31.87
2018-12-18T07:55:27.220Z,37.98
2018-12-18T07:57:53.971Z,42.53
2018-12-18T08:00:20.737Z,36.43
2018-12-18T08:02:47.484Z,31.77
2018-12-18T08:05:14.244Z,19.70
2018-12-18T08:07:40.988Z,72.60
2018-12-18T08:10:07.763Z,27.33
2018-12-18T08:12:34.507Z,47.03
2018-12-18T08:15:01.252Z,39.63
2018-12-18T08:17:28.002Z,30.90
2018-12-18T08:19:54.768Z,40.10
2018-12-18T08:22:21.504Z,26.63
2018-12-18T08:24:48.262Z,20.23
2018-12-18T08:27:15.011Z,17.33
2018-12-18T08:29:41.748Z,23.03
2018-12-18T08:32:09.569Z,18.17
2018-12-18T08:34:35.260Z,65.93
2018-12-18T08:37:02.024Z,17.73
2018-12-18T08:39:28.775Z,21.40
2018-12-18T08:41:55.517Z,43.93
2018-12-18T08:44:22.249Z,21.00
2018-12-18T08:46:49.020Z,20.70
2018-12-18T08:49:15.741Z,23.33
2018-12-18T08:51:42.504Z,21.83
2018-12-18T08:54:09.260Z,17.03
2018-12-18T08:56:36.065Z,26.67
2018-12-18T08:59:02.792Z,28.23
2018-12-18T09:01:29.544Z,17.60
2018-12-18T09:03:56.288Z,16.10
2018-12-18T09:06:23.052Z,54.57
2018-12-18T09:08:49.799Z,21.87
2018-12-18T09:11:16.557Z,40.60
2018-12-18T09:13:43.292Z,9.60
2018-12-18T09:16:15.864Z,10.53
2018-12-18T09:18:42.604Z,11.83
2018-12-18T09:21:09.373Z,9.53
2018-12-18T09:23:36.113Z,9.43
2018-12-18T09:26:02.876Z,10.73
2018-12-18T09:28:29.609Z,9.40
2018-12-18T09:30:56.365Z,7.70
2018-12-18T09:33:23.120Z,9.30
2018-12-18T09:35:50.037Z,58.97
2018-12-18T09:38:22.304Z,11.30
2018-12-18T09:40:54.924Z,9.60
2018-12-18T09:43:27.440Z,12.13
2018-12-18T09:45:54.208Z,12.03
2018-12-18T09:48:21.024Z,10.90
2018-12-18T09:50:47.788Z,12.10
2018-12-18T09:53:14.680Z,12.00
2018-12-18T09:55:41.451Z,11.23
2018-12-18T09:58:11.072Z,11.40
2018-12-18T10:00:37.900Z,11.00
2018-12-18T10:03:04.664Z,11.53
2018-12-18T10:05:31.416Z,10.90
2018-12-18T10:07:58.176Z,13.20
2018-12-18T10:10:24.982Z,13.23
2018-12-18T10:12:55.460Z,10.33
2018-12-18T10:15:22.708Z,9.83
2018-12-18T10:17:49.455Z,9.43
2018-12-18T10:20:16.192Z,11.67
2018-12-18T10:22:42.944Z,8.97
2018-12-18T10:25:09.674Z,9.40
2018-12-18T10:27:36.408Z,9.67
2018-12-18T10:30:03.200Z,9.73
2018-12-18T10:32:29.931Z,7.37
2018-12-18T10:34:56.689Z,7.60
2018-12-18T10:37:23.421Z,7.97
2018-12-18T10:39:50.184Z,9.90
2018-12-18T10:42:16.927Z,10.00
2018-12-18T10:44:43.680Z,10.57
2018-12-18T10:47:10.425Z,17.30
2018-12-18T10:49:37.184Z,11.80
2018-12-18T10:52:03.912Z,12.57
2018-12-18T10:54:30.689Z,14.53
2018-12-18T10:56:57.434Z,23.80
2018-12-18T10:59:24.193Z,14.87
2018-12-18T11:01:50.939Z,22.60
2018-12-18T11:04:17.700Z,24.43
2018-12-18T11:06:44.440Z,66.43
2018-12-18T11:09:11.216Z,95.40
2018-12-18T11:11:37.969Z,69.00
2018-12-18T11:14:04.832Z,22.60
2018-12-18T11:16:37.108Z,42.83
2018-12-18T11:18:58.340Z,40.00
2018-12-18T11:21:25.079Z,41.23
2018-12-18T11:23:51.837Z,81.37
2018-12-18T11:26:18.572Z,66.77
2018-12-18T11:28:45.350Z,20.57
2018-12-18T11:31:12.107Z,19.63
2018-12-18T11:33:38.868Z,22.10
2018-12-18T11:36:05.606Z,25.57
2018-12-18T11:38:32.365Z,19.90
2018-12-18T11:40:59.104Z,17.30
2018-12-18T11:43:25.872Z,18.73
2018-12-18T11:45:52.608Z,23.23
2018-12-18T11:48:19.392Z,14.87
2018-12-18T11:50:46.141Z,16.13
2018-12-18T11:53:12.873Z,18.43
2018-12-18T11:55:39.664Z,17.10
2018-12-18T11:58:06.407Z,20.70
2018-12-18T12:00:33.184Z,17.67
2018-12-18T12:02:59.934Z,19.70
2018-12-18T12:05:26.706Z,18.10
2018-12-18T12:07:53.444Z,17.37
2018-12-18T12:10:20.220Z,82.97
2018-12-18T12:12:46.975Z,39.63
2018-12-18T12:15:13.740Z,14.63
2018-12-18T12:17:40.481Z,17.23
2018-12-18T12:20:07.252Z,18.17
2018-12-18T12:22:33.996Z,22.20
2018-12-18T12:25:00.860Z,18.30
2018-12-18T12:27:32.568Z,22.10
2018-12-18T12:29:59.328Z,18.30
2018-12-18T12:32:26.120Z,22.57
2018-12-18T12:34:52.888Z,18.00
2018-12-18T12:37:19.643Z,20.07
2018-12-18T12:39:46.412Z,19.40
2018-12-18T12:42:13.507Z,18.90
2018-12-18T12:44:40.273Z,19.13
2018-12-18T12:47:07.021Z,14.50
2018-12-18T12:49:39.608Z,14.63
2018-12-18T12:52:06.357Z,14.37
2018-12-18T12:54:33.124Z,14.07
2018-12-18T12:56:59.880Z,13.00
2018-12-18T12:59:26.640Z,12.20
2018-12-18T13:01:53.459Z,14.73
2018-12-18T13:04:20.217Z,12.57
2018-12-18T13:06:47.273Z,15.13
2018-12-18T13:09:14.041Z,12.40
2018-12-18T13:11:40.777Z,12.93
2018-12-18T13:14:07.636Z,9.87
2018-12-18T13:16:36.002Z,10.37
2018-12-18T13:19:02.817Z,9.17
2018-12-18T13:21:29.785Z,14.10
2018-12-18T13:24:00.592Z,9.03
2018-12-18T13:26:27.441Z,8.10
2018-12-18T13:28:54.258Z,9.83
2018-12-18T13:31:21.163Z,13.67
2018-12-18T13:33:48.007Z,9.33
2018-12-18T13:36:14.812Z,8.90
2018-12-18T13:38:41.640Z,8.83
2018-12-18T13:41:09.254Z,9.60
2018-12-18T13:43:36.041Z,9.53
2018-12-18T13:46:02.882Z,9.27
2018-12-18T13:48:29.704Z,10.80
2018-12-18T13:50:56.549Z,9.00
2018-12-18T13:53:23.333Z,9.38
2018-12-18T13:55:50.104Z,8.70
2018-12-18T13:58:16.876Z,7.83
2018-12-18T14:00:43.725Z,8.45
2018-12-18T14:03:10.496Z,10.43
2018-12-18T14:05:37.337Z,10.93
2018-12-18T14:08:04.040Z,8.97
2018-12-18T14:10:30.809Z,6.50
2018-12-18T14:12:57.560Z,6.63
2018-12-18T14:15:24.669Z,5.40
2018-12-18T14:17:51.444Z,8.23
2018-12-18T14:20:18.218Z,4.23
2018-12-18T14:22:45.101Z,10.80
2018-12-18T14:25:11.844Z,4.27
2018-12-18T14:27:38.592Z,8.40
2018-12-18T14:30:05.380Z,7.47
2018-12-18T14:32:32.114Z,25.72
2018-12-18T14:34:58.872Z,10.20
2018-12-18T14:37:25.629Z,10.03
2018-12-18T14:39:52.392Z,9.83
2018-12-18T14:42:19.144Z,8.17
2018-12-18T14:44:45.900Z,11.90
2018-12-18T14:47:12.676Z,15.30
2018-12-18T14:49:39.536Z,8.77
2018-12-18T14:52:06.389Z,7.63
2018-12-18T14:54:33.211Z,7.87
2018-12-18T14:57:00.084Z,5.80
2018-12-18T14:59:26.829Z,10.03
2018-12-18T15:01:53.660Z,8.67
2018-12-18T15:04:20.497Z,12.37
2018-12-18T15:06:47.272Z,11.60
2018-12-18T15:09:14.024Z,10.23
2018-12-18T15:11:40.810Z,9.53
2018-12-18T15:14:07.568Z,8.77
2018-12-18T15:16:34.416Z,7.10
2018-12-18T15:19:01.233Z,6.03
2018-12-18T15:21:28.042Z,6.27
2018-12-18T15:23:54.782Z,7.83
2018-12-18T15:26:21.646Z,6.13
2018-12-18T15:28:48.501Z,9.20
2018-12-18T15:31:15.260Z,10.10
2018-12-18T15:33:42.025Z,8.30
2018-12-18T15:36:08.858Z,10.40
2018-12-18T15:38:35.620Z,9.30
2018-12-18T15:41:02.396Z,9.60
2018-12-18T15:43:29.160Z,15.07
2018-12-18T15:45:55.920Z,15.97
2018-12-18T15:48:22.674Z,16.40
2018-12-18T15:50:49.432Z,25.50
2018-12-18T15:53:16.184Z,20.23
2018-12-18T15:55:42.934Z,21.50
2018-12-18T15:58:09.809Z,18.33
2018-12-18T16:00:36.572Z,22.10
2018-12-18T16:03:03.324Z,26.47
2018-12-18T16:05:30.070Z,30.47
2018-12-18T16:07:56.838Z,29.57
2018-12-18T16:10:23.592Z,23.47
2018-12-18T16:12:50.385Z,24.03
2018-12-18T16:15:17.136Z,21.70
2018-12-18T16:17:43.891Z,19.53
2018-12-18T16:20:10.651Z,20.53
2018-12-18T16:22:37.435Z,18.70
2018-12-18T16:25:04.252Z,18.93
2018-12-18T16:27:31.015Z,24.27
2018-12-18T16:29:57.773Z,18.80
2018-12-18T16:32:24.580Z,16.80
2018-12-18T16:34:51.358Z,15.87
2018-12-18T16:37:22.943Z,20.77
2018-12-18T16:39:44.986Z,19.83
2018-12-18T16:42:11.783Z,18.30
2018-12-18T16:44:38.546Z,20.93
2018-12-18T16:47:05.317Z,15.33
2018-12-18T16:49:32.073Z,15.83
2018-12-18T16:51:58.856Z,25.67
2018-12-18T16:54:25.604Z,14.80
2018-12-18T16:56:52.380Z,12.90
2018-12-18T16:59:19.144Z,18.73
2018-12-18T17:01:45.984Z,27.57
2018-12-18T17:04:12.736Z,29.80
2018-12-18T17:06:39.544Z,32.07
2018-12-18T17:09:06.401Z,49.23
2018-12-18T17:11:33.175Z,31.33
2018-12-18T17:13:59.953Z,31.30
2018-12-18T17:16:26.692Z,33.03
2018-12-18T17:18:53.497Z,33.40
2018-12-18T17:21:20.252Z,23.50
2018-12-18T17:23:47.012Z,21.03
2018-12-18T17:26:13.764Z,25.23
2018-12-18T17:28:40.540Z,22.17
2018-12-18T17:31:07.288Z,20.73
2018-12-18T17:33:34.081Z,23.67
2018-12-18T17:36:00.830Z,22.07
2018-12-18T17:38:27.611Z,17.93
2018-12-18T17:40:54.364Z,20.20
2018-12-18T17:43:21.127Z,22.57
2018-12-18T17:45:47.873Z,21.30
2018-12-18T17:48:14.652Z,17.53
2018-12-18T17:50:41.393Z,15.87
2018-12-18T17:53:08.152Z,17.60
2018-12-18T17:55:34.944Z,17.53
2018-12-18T17:58:01.824Z,20.20
2018-12-18T18:00:28.580Z,23.40
2018-12-18T18:02:55.338Z,16.10
2018-12-18T18:05:22.100Z,14.40
2018-12-18T18:07:48.900Z,16.23
2018-12-18T18:10:15.644Z,14.10
2018-12-18T18:12:42.454Z,13.97
2018-12-18T18:15:09.228Z,14.63
2018-12-18T18:17:36.017Z,15.13
2018-12-18T18:20:02.765Z,16.47
2018-12-18T18:22:29.557Z,17.20
2018-12-18T18:24:56.292Z,13.63
2018-12-18T18:27:23.061Z,15.80
2018-12-18T18:29:49.844Z,18.23
2018-12-18T18:32:16.593Z,24.37
2018-12-18T18:34:43.557Z,18.23
2018-12-18T18:37:10.322Z,46.55
2018-12-18T18:39:37.097Z,20.53
2018-12-18T18:42:03.853Z,17.93
2018-12-18T18:44:30.684Z,13.90
2018-12-18T18:46:57.436Z,20.40
2018-12-18T18:49:24.308Z,24.10
2018-12-18T18:51:51.096Z,19.63
2018-12-18T18:54:17.880Z,23.47
2018-12-18T18:56:44.630Z,45.33
2018-12-18T18:59:11.448Z,47.10
2018-12-18T19:01:38.196Z,54.17
2018-12-18T19:04:04.989Z,21.20
2018-12-18T19:06:31.771Z,15.43
2018-12-18T19:08:58.589Z,19.27
2018-12-18T19:11:25.336Z,17.67
2018-12-18T19:13:52.116Z,18.20
2018-12-18T19:16:18.856Z,23.95
2018-12-18T19:18:45.653Z,18.97
2018-12-18T19:21:12.409Z,22.80
2018-12-18T19:23:39.200Z,27.50
2018-12-18T19:26:06.352Z,31.33
2018-12-18T19:28:33.190Z,23.73
2018-12-18T19:30:59.961Z,23.75
2018-12-18T19:33:26.717Z,28.63
2018-12-18T19:35:53.491Z,33.30
2018-12-18T19:38:20.265Z,20.30
2018-12-18T19:40:47.024Z,21.13
2018-12-18T19:43:13.807Z,18.15
2018-12-18T19:45:40.553Z,19.12
2018-12-18T19:48:07.672Z,21.40
2018-12-18T19:50:34.435Z,15.10
2018-12-18T19:53:01.202Z,13.30
2018-12-18T19:55:28.002Z,15.20
2018-12-18T19:57:54.789Z,16.03
2018-12-18T20:00:21.564Z,13.03
2018-12-18T20:02:48.324Z,16.43
2018-12-18T20:05:15.122Z,21.93
2018-12-18T20:07:41.856Z,21.77
2018-12-18T20:10:08.620Z,18.17
2018-12-18T20:12:35.360Z,19.48
2018-12-18T20:15:02.381Z,17.70
2018-12-18T20:17:29.136Z,16.70
2018-12-18T20:19:55.908Z,18.80
2018-12-18T20:22:22.669Z,20.30
2018-12-18T20:24:49.449Z,20.72
2018-12-18T20:27:16.204Z,21.63
2018-12-18T20:29:42.972Z,26.30
2018-12-18T20:32:09.756Z,18.10
2018-12-18T20:34:36.524Z,21.55
2018-12-18T20:37:03.277Z,16.83
2018-12-18T20:39:30.045Z,16.20
2018-12-18T20:41:56.792Z,16.33
2018-12-18T20:44:23.568Z,16.63
2018-12-18T20:46:50.346Z,15.20
2018-12-18T20:49:17.116Z,14.20
2018-12-18T20:51:43.861Z,15.10
2018-12-18T20:54:10.612Z,14.73
2018-12-18T20:56:37.372Z,13.70
2018-12-18T20:59:04.423Z,16.93
2018-12-18T21:01:30.906Z,19.57
2018-12-18T21:03:57.672Z,17.23
2018-12-18T21:06:24.405Z,16.75
2018-12-18T21:08:51.213Z,16.53
2018-12-18T21:11:17.965Z,12.60
2018-12-18T21:13:44.752Z,16.63
2018-12-18T21:16:11.497Z,15.90
2018-12-18T21:18:38.261Z,15.20
2018-12-18T21:21:05.075Z,15.17
2018-12-18T21:23:31.832Z,14.03
2018-12-18T21:25:58.626Z,15.57
2018-12-18T21:28:25.376Z,16.10
2018-12-18T21:30:52.176Z,15.57
2018-12-18T21:33:18.997Z,16.30
2018-12-18T21:35:45.752Z,16.55
2018-12-18T21:38:12.505Z,15.37
2018-12-18T21:40:39.287Z,13.23
2018-12-18T21:43:06.144Z,18.92
2018-12-18T21:45:32.924Z,15.27
2018-12-18T21:47:59.688Z,20.30
2018-12-18T21:50:26.460Z,38.50
2018-12-18T21:52:53.216Z,55.78
2018-12-18T21:55:20.002Z,26.90
2018-12-18T21:57:46.837Z,27.25
2018-12-18T22:00:13.588Z,27.30
2018-12-18T22:02:40.363Z,26.50
2018-12-18T22:05:07.145Z,32.48
2018-12-18T22:07:33.939Z,32.50
2018-12-18T22:10:00.713Z,40.28
2018-12-18T22:12:27.477Z,25.00
2018-12-18T22:14:54.246Z,28.92
2018-12-18T22:17:20.977Z,32.17
2018-12-18T22:19:47.793Z,33.63
2018-12-18T22:22:14.524Z,33.78
2018-12-18T22:24:41.332Z,26.00
2018-12-18T22:27:08.081Z,27.87
2018-12-18T22:29:34.929Z,23.00
2018-12-18T22:32:01.781Z,22.02
2018-12-18T22:34:28.585Z,18.90
2018-12-18T22:36:55.388Z,17.40
2018-12-18T22:39:22.168Z,20.60
2018-12-18T22:41:48.941Z,25.92
2018-12-18T22:44:15.727Z,26.20
2018-12-18T22:46:42.464Z,28.20
2018-12-18T22:49:09.276Z,25.00
2018-12-18T22:51:36.046Z,26.17
2018-12-18T22:54:02.788Z,20.70
2018-12-18T22:56:29.556Z,22.67
2018-12-18T22:58:56.364Z,21.85
2018-12-18T23:01:28.861Z,21.80
2018-12-18T23:03:55.617Z,17.77
2018-12-18T23:06:22.392Z,12.60
2018-12-18T23:08:50.412Z,13.48
2018-12-18T23:11:15.892Z,11.43
2018-12-18T23:13:42.644Z,13.17
2018-12-18T23:16:09.425Z,11.70
2018-12-18T23:18:36.184Z,10.60
2018-12-18T23:21:02.958Z,11.68
2018-12-18T23:23:29.715Z,8.53
2018-12-18T23:25:56.496Z,9.60
2018-12-18T23:28:23.237Z,10.10
2018-12-18T23:30:50.008Z,8.37
2018-12-18T23:33:16.751Z,10.68
2018-12-18T23:35:43.526Z,9.53
2018-12-18T23:38:10.259Z,11.03
2018-12-18T23:40:37.028Z,10.77
2018-12-18T23:43:03.777Z,8.65
2018-12-18T23:45:30.552Z,8.87
2018-12-18T23:47:57.289Z,11.73
2018-12-18T23:50:24.061Z,9.93
2018-12-18T23:52:50.796Z,8.55
2018-12-18T23:55:17.577Z,8.67
2018-12-18T23:57:44.348Z,10.85
